Time;durP1;ratioP1;P1;durP2;ratioP2;P2;SDS_P1;SDS_P2;PMS_P1;PMS_P2;Temp;Humidity;BMP_temperature;BMP_pressure;BME280_temperature;BME280_humidity;BME280_pressure;Samples;Min_cycle;Max_cycle;Signal;HPM_P1;HPM_P2
2023/05/11 00:02:26;;;;;;;;;;;20.30;45.10;;;;;;5071785;28;19931;-60
2023/05/11 00:04:53;;;;;;;;;;;20.30;45.10;;;;;;5074332;28;19924;-60
2023/05/11 00:07:21;;;;;;;;;;;20.30;45.10;;;;;;5073796;28;19920;-60
2023/05/11 00:09:48;;;;;;;;;;;20.30;45.10;;;;;;5069484;28;19970;-60
2023/05/11 00:12:15;;;;;;;;;;;20.30;45.10;;;;;;5073359;28;20389;-60
2023/05/11 00:14:42;;;;;;;;;;;20.20;45.00;;;;;;5091216;28;19924;-60
2023/05/11 00:17:09;;;;;;;;;;;20.30;45.10;;;;;;5071678;28;19924;-60
2023/05/11 00:19:36;;;;;;;;;;;20.20;45.00;;;;;;5089127;28;20010;-60
2023/05/11 00:22:03;;;;;;;;;;;20.30;45.10;;;;;;5073458;28;19924;-60
2023/05/11 00:24:31;;;;;;;;;;;20.30;45.10;;;;;;5086042;28;19920;-60
2023/05/11 00:26:57;;;;;;;;;;;20.30;45.10;;;;;;5073224;28;19920;-60
2023/05/11 00:29:25;;;;;;;;;;;20.30;45.10;;;;;;5072511;28;19939;-60
2023/05/11 00:31:51;;;;;;;;;;;20.30;45.10;;;;;;5071671;28;19924;-59
2023/05/11 00:34:18;;;;;;;;;;;20.20;45.00;;;;;;5070135;28;19982;-59
2023/05/11 00:36:45;;;;;;;;;;;20.30;45.00;;;;;;5072826;28;20220;-60
2023/05/11 00:39:12;;;;;;;;;;;20.20;44.90;;;;;;5089931;28;19978;-60
2023/05/11 00:41:40;;;;;;;;;;;20.30;45.00;;;;;;5090993;28;19927;-59
2023/05/11 00:44:07;;;;;;;;;;;20.30;45.10;;;;;;5091462;28;19920;-60
2023/05/11 00:46:34;;;;;;;;;;;20.30;45.00;;;;;;5070334;28;19924;-60
2023/05/11 00:49:00;;;;;;;;;;;20.30;45.00;;;;;;5070404;28;19933;-60
2023/05/11 00:51:27;;;;;;;;;;;20.30;45.00;;;;;;5089516;28;19994;-60
2023/05/11 00:53:54;;;;;;;;;;;20.20;44.90;;;;;;5071470;28;19920;-60
2023/05/11 00:56:21;;;;;;;;;;;20.30;45.00;;;;;;5072299;28;19924;-60
2023/05/11 00:58:50;;;;;;;;;;;20.30;45.00;;;;;;5090722;28;19920;-61
2023/05/11 01:01:17;;;;;;;;;;;20.30;45.00;;;;;;5071938;28;19966;-60
2023/05/11 01:03:44;;;;;;;;;;;20.30;45.00;;;;;;5071648;28;19939;-60
2023/05/11 01:06:12;;;;;;;;;;;20.30;45.00;;;;;;5068590;28;20354;-60
2023/05/11 01:08:40;;;;;;;;;;;20.30;45.00;;;;;;5089337;28;19947;-60
2023/05/11 01:11:10;;;;;;;;;;;20.30;45.00;;;;;;5072276;28;19965;-60
2023/05/11 01:13:37;;;;;;;;;;;20.30;45.00;;;;;;5071514;28;19920;-60
2023/05/11 01:16:07;;;;;;;;;;;20.30;45.00;;;;;;5086792;28;19930;-60
2023/05/11 01:18:35;;;;;;;;;;;20.30;45.00;;;;;;5088010;28;19926;-60
2023/05/11 01:21:02;;;;;;;;;;;20.30;45.00;;;;;;5087486;28;19923;-59
2023/05/11 01:23:49;;;;;;;;;;;20.30;45.00;;;;;;5088121;28;19954;-60
2023/05/11 01:26:22;;;;;;;;;;;20.30;44.90;;;;;;5068163;28;19920;-60
2023/05/11 01:29:03;;;;;;;;;;;20.30;45.00;;;;;;5089302;28;19993;-60
2023/05/11 01:31:32;;;;;;;;;;;20.30;45.00;;;;;;5070766;28;19966;-59
2023/05/11 01:33:59;;;;;;;;;;;20.30;45.00;;;;;;5071451;28;19955;-59
2023/05/11 01:36:27;;;;;;;;;;;20.30;45.00;;;;;;5070990;28;19939;-59
2023/05/11 01:38:54;;;;;;;;;;;20.30;44.90;;;;;;5089006;28;19920;-60
2023/05/11 01:41:22;;;;;;;;;;;20.30;44.90;;;;;;5068760;28;19928;-59
2023/05/11 01:43:50;;;;;;;;;;;20.30;45.00;;;;;;5071104;28;19920;-59
2023/05/11 01:46:17;;;;;;;;;;;20.30;45.00;;;;;;5089188;28;19966;-60
2023/05/11 01:48:46;;;;;;;;;;;20.30;44.90;;;;;;5089376;28;19926;-60
2023/05/11 01:51:13;;;;;;;;;;;20.30;44.90;;;;;;5085232;28;19924;-60
2023/05/11 01:53:40;;;;;;;;;;;20.30;44.90;;;;;;5071189;28;20312;-60
2023/05/11 01:56:07;;;;;;;;;;;20.30;44.90;;;;;;5088225;28;19969;-60
2023/05/11 01:58:34;;;;;;;;;;;20.30;44.90;;;;;;5069817;28;19926;-60
2023/05/11 02:01:01;;;;;;;;;;;20.30;44.90;;;;;;5071813;28;19920;-60
2023/05/11 02:03:29;;;;;;;;;;;20.30;44.90;;;;;;5089707;28;19920;-60
2023/05/11 02:05:57;;;;;;;;;;;20.30;44.90;;;;;;5070968;28;19921;-60
2023/05/11 02:08:24;;;;;;;;;;;20.30;44.90;;;;;;5073530;28;19941;-60
2023/05/11 02:10:52;;;;;;;;;;;20.30;44.90;;;;;;5071626;28;20796;-60
2023/05/11 02:13:18;;;;;;;;;;;20.30;44.90;;;;;;5068425;28;19931;-60
2023/05/11 02:15:45;;;;;;;;;;;20.30;44.90;;;;;;5087661;28;19954;-60
2023/05/11 02:18:12;;;;;;;;;;;20.30;44.90;;;;;;5071439;28;19927;-59
2023/05/11 02:20:39;;;;;;;;;;;20.30;44.90;;;;;;5070550;28;20340;-60
2023/05/11 02:23:08;;;;;;;;;;;20.30;44.90;;;;;;5076390;28;20007;-59
2023/05/11 02:25:34;;;;;;;;;;;20.30;44.90;;;;;;5088282;28;20373;-60
2023/05/11 02:28:01;;;;;;;;;;;20.30;44.90;;;;;;5074640;28;19928;-60
2023/05/11 02:30:28;;;;;;;;;;;20.30;44.90;;;;;;5070750;28;19920;-60
2023/05/11 02:32:55;;;;;;;;;;;20.30;44.80;;;;;;5075525;28;19921;-59
2023/05/11 02:35:23;;;;;;;;;;;20.30;44.90;;;;;;5076126;28;19969;-59
2023/05/11 02:37:50;;;;;;;;;;;20.30;44.90;;;;;;5075153;28;19927;-59
2023/05/11 02:40:18;;;;;;;;;;;20.30;44.80;;;;;;5073932;28;19955;-59
2023/05/11 02:42:45;;;;;;;;;;;20.20;44.80;;;;;;5074594;28;19955;-59
2023/05/11 02:45:12;;;;;;;;;;;20.30;44.90;;;;;;5093210;28;19923;-59
2023/05/11 02:47:39;;;;;;;;;;;20.30;44.90;;;;;;5088795;28;19943;-60
2023/05/11 02:50:06;;;;;;;;;;;20.30;44.90;;;;;;5073090;28;20036;-59
2023/05/11 02:52:33;;;;;;;;;;;20.30;44.90;;;;;;5093626;28;19923;-60
2023/05/11 02:55:00;;;;;;;;;;;20.30;44.90;;;;;;5073819;28;20313;-60
2023/05/11 02:57:28;;;;;;;;;;;20.30;44.90;;;;;;5074200;28;19924;-60
2023/05/11 02:59:55;;;;;;;;;;;20.30;44.80;;;;;;5071745;28;19920;-60
2023/05/11 03:02:23;;;;;;;;;;;20.30;44.80;;;;;;5072266;28;19920;-60
2023/05/11 03:04:50;;;;;;;;;;;20.30;44.80;;;;;;5090384;28;19930;-60
2023/05/11 03:07:17;;;;;;;;;;;20.30;44.90;;;;;;5073891;28;19965;-60
2023/05/11 03:09:44;;;;;;;;;;;20.30;44.80;;;;;;5073292;28;19957;-60
2023/05/11 03:12:10;;;;;;;;;;;20.30;44.90;;;;;;5074160;28;19981;-60
2023/05/11 03:14:39;;;;;;;;;;;20.30;44.80;;;;;;5090495;28;19924;-60
2023/05/11 03:17:06;;;;;;;;;;;20.30;44.90;;;;;;5073072;28;19920;-60
2023/05/11 03:19:32;;;;;;;;;;;20.30;44.90;;;;;;5074676;28;19931;-59
2023/05/11 03:21:59;;;;;;;;;;;20.30;44.80;;;;;;5074258;28;20315;-59
2023/05/11 03:24:26;;;;;;;;;;;20.30;44.80;;;;;;5091309;28;19920;-59
2023/05/11 03:26:53;;;;;;;;;;;20.30;44.80;;;;;;5090600;28;20004;-59
2023/05/11 03:29:20;;;;;;;;;;;20.30;44.80;;;;;;5072944;28;19948;-60
2023/05/11 03:31:48;;;;;;;;;;;20.30;44.80;;;;;;5091563;28;19931;-59
2023/05/11 03:34:15;;;;;;;;;;;20.30;44.80;;;;;;5089891;28;19920;-59
2023/05/11 03:36:42;;;;;;;;;;;;;;;;;;5087485;28;19924;-60
2023/05/11 03:39:10;;;;;;;;;;;;;;;;;;5089683;28;19921;-59
2023/05/11 03:41:37;;;;;;;;;;;20.30;44.80;;;;;;5089734;28;20362;-60
2023/05/11 03:44:04;;;;;;;;;;;20.30;44.50;;;;;;5073286;28;19924;-60
2023/05/11 03:46:31;;;;;;;;;;;20.30;44.90;;;;;;5089688;28;19932;-60
2023/05/11 03:48:59;;;;;;;;;;;20.30;44.80;;;;;;5090616;28;19932;-60
2023/05/11 03:51:26;;;;;;;;;;;20.30;44.80;;;;;;5072798;28;19920;-60
2023/05/11 03:53:53;;;;;;;;;;;20.30;44.80;;;;;;5071662;28;19924;-59
2023/05/11 03:56:20;;;;;;;;;;;20.30;44.80;;;;;;5089339;28;19970;-60
2023/05/11 03:58:47;;;;;;;;;;;20.30;44.80;;;;;;5073880;28;20032;-60
2023/05/11 04:01:14;;;;;;;;;;;20.30;44.80;;;;;;5090590;28;19959;-59
2023/05/11 04:03:47;;;;;;;;;;;20.30;44.80;;;;;;5091469;28;19973;-60
2023/05/11 04:06:15;;;;;;;;;;;20.30;44.80;;;;;;5091638;28;20158;-60
2023/05/11 04:08:42;;;;;;;;;;;20.30;44.80;;;;;;5088270;28;19967;-60
2023/05/11 04:11:09;;;;;;;;;;;20.30;44.80;;;;;;5073600;28;19977;-60
2023/05/11 04:13:35;;;;;;;;;;;20.30;44.80;;;;;;5090120;28;19920;-60
2023/05/11 04:16:02;;;;;;;;;;;20.30;44.80;;;;;;5089911;28;19920;-60
2023/05/11 04:18:29;;;;;;;;;;;20.30;44.80;;;;;;5074455;28;19924;-61
2023/05/11 04:20:55;;;;;;;;;;;20.30;44.80;;;;;;5074807;28;20019;-59
2023/05/11 04:23:24;;;;;;;;;;;20.30;44.80;;;;;;5072296;28;19931;-59
2023/05/11 04:25:52;;;;;;;;;;;20.30;44.80;;;;;;5069412;28;20000;-60
2023/05/11 04:28:19;;;;;;;;;;;20.30;44.80;;;;;;5090035;28;19919;-59
2023/05/11 04:30:46;;;;;;;;;;;20.30;44.80;;;;;;5073840;28;19920;-60
2023/05/11 04:33:13;;;;;;;;;;;20.30;44.70;;;;;;5089409;28;19932;-59
2023/05/11 04:35:40;;;;;;;;;;;20.30;44.80;;;;;;5072558;28;19927;-59
2023/05/11 04:38:06;;;;;;;;;;;20.30;44.70;;;;;;5088554;28;19919;-60
2023/05/11 04:40:35;;;;;;;;;;;20.30;44.80;;;;;;5070677;28;19932;-59
2023/05/11 04:43:02;;;;;;;;;;;20.30;44.70;;;;;;5090746;28;20381;-59
2023/05/11 04:45:29;;;;;;;;;;;20.30;44.70;;;;;;5089050;28;19920;-59
2023/05/11 04:47:56;;;;;;;;;;;20.30;44.70;;;;;;5071889;28;19926;-60
2023/05/11 04:50:22;;;;;;;;;;;20.30;44.70;;;;;;5071062;28;19939;-60
2023/05/11 04:52:49;;;;;;;;;;;20.30;44.70;;;;;;5091508;28;19920;-60
2023/05/11 04:55:16;;;;;;;;;;;20.30;44.70;;;;;;5089663;28;19943;-60
2023/05/11 04:57:44;;;;;;;;;;;20.30;44.70;;;;;;5089985;28;19924;-60
2023/05/11 05:00:11;;;;;;;;;;;20.30;44.70;;;;;;5071481;28;19920;-60
2023/05/11 05:02:38;;;;;;;;;;;20.30;44.70;;;;;;5087369;28;19973;-60
2023/05/11 05:05:05;;;;;;;;;;;20.30;44.70;;;;;;5087308;28;19977;-60
2023/05/11 05:07:32;;;;;;;;;;;20.30;44.70;;;;;;5088870;28;19923;-60
2023/05/11 05:10:00;;;;;;;;;;;20.30;44.70;;;;;;5070760;28;20281;-60
2023/05/11 05:12:27;;;;;;;;;;;20.30;44.70;;;;;;5068634;28;19950;-60
2023/05/11 05:14:55;;;;;;;;;;;20.30;44.70;;;;;;5071680;28;19935;-60
2023/05/11 05:17:21;;;;;;;;;;;20.30;44.70;;;;;;5088759;28;19924;-60
2023/05/11 05:19:48;;;;;;;;;;;20.30;44.70;;;;;;5090998;28;19965;-60
2023/05/11 05:22:15;;;;;;;;;;;20.30;44.70;;;;;;5077597;28;19920;-60
2023/05/11 05:24:42;;;;;;;;;;;20.30;44.70;;;;;;5072332;28;19928;-60
2023/05/11 05:27:09;;;;;;;;;;;20.30;44.70;;;;;;5087136;28;20378;-60
2023/05/11 05:29:36;;;;;;;;;;;20.30;44.70;;;;;;5067188;28;19963;-60
2023/05/11 05:32:04;;;;;;;;;;;20.30;44.70;;;;;;5089554;28;19931;-60
2023/05/11 05:34:30;;;;;;;;;;;20.30;44.70;;;;;;5069641;28;19927;-60
2023/05/11 05:36:57;;;;;;;;;;;20.30;44.70;;;;;;5087253;28;19931;-60
2023/05/11 05:39:24;;;;;;;;;;;20.30;44.70;;;;;;5088255;28;19928;-60
2023/05/11 05:41:51;;;;;;;;;;;20.30;44.70;;;;;;5067601;28;19920;-60
2023/05/11 05:44:18;;;;;;;;;;;20.30;44.70;;;;;;5069734;28;19920;-60
2023/05/11 05:46:44;;;;;;;;;;;20.30;44.70;;;;;;5067968;28;19920;-60
2023/05/11 05:49:13;;;;;;;;;;;20.30;44.70;;;;;;5073556;28;19924;-60
2023/05/11 05:51:39;;;;;;;;;;;20.30;44.70;;;;;;5088457;28;19920;-60
2023/05/11 05:54:06;;;;;;;;;;;20.30;44.70;;;;;;5084964;28;19920;-60
2023/05/11 05:56:33;;;;;;;;;;;20.30;44.70;;;;;;5069999;28;20050;-60
2023/05/11 05:59:00;;;;;;;;;;;20.30;44.70;;;;;;5087098;28;19928;-60
2023/05/11 06:01:27;;;;;;;;;;;20.30;44.80;;;;;;5071989;28;20526;-60
2023/05/11 06:03:55;;;;;;;;;;;20.30;44.70;;;;;;5074700;28;19924;-61
2023/05/11 06:06:23;;;;;;;;;;;20.30;44.70;;;;;;5096268;28;20580;-60
2023/05/11 06:08:50;;;;;;;;;;;20.30;44.70;;;;;;5092595;28;19920;-60
2023/05/11 06:11:20;;;;;;;;;;;20.30;44.70;;;;;;5092251;28;19955;-60
2023/05/11 06:13:47;;;;;;;;;;;20.30;44.70;;;;;;5092414;28;20415;-60
2023/05/11 06:16:14;;;;;;;;;;;20.30;44.70;;;;;;5091795;28;19939;-60
2023/05/11 06:18:43;;;;;;;;;;;20.30;44.70;;;;;;5075063;28;19920;-60
2023/05/11 06:21:10;;;;;;;;;;;20.30;44.70;;;;;;5091366;28;19924;-61
2023/05/11 06:23:38;;;;;;;;;;;20.30;44.70;;;;;;5089172;28;20127;-60
2023/05/11 06:26:05;;;;;;;;;;;20.30;44.70;;;;;;5084223;28;19920;-60
2023/05/11 06:28:32;;;;;;;;;;;20.30;44.70;;;;;;5090588;28;19943;-61
2023/05/11 06:30:59;;;;;;;;;;;20.30;45.30;;;;;;5071398;28;19927;-59
2023/05/11 06:33:26;;;;;;;;;;;20.30;44.70;;;;;;5093197;28;19962;-56
2023/05/11 06:35:53;;;;;;;;;;;20.30;44.70;;;;;;5088490;28;19924;-57
2023/05/11 06:38:19;;;;;;;;;;;20.30;44.80;;;;;;5092480;28;20015;-57
2023/05/11 06:40:48;;;;;;;;;;;20.30;44.80;;;;;;5092359;28;19927;-58
2023/05/11 06:43:17;;;;;;;;;;;20.30;44.90;;;;;;5075342;28;19920;-58
2023/05/11 06:45:44;;;;;;;;;;;20.30;45.20;;;;;;5074709;28;20283;-58
2023/05/11 06:48:11;;;;;;;;;;;20.30;45.30;;;;;;5075000;28;19927;-58
2023/05/11 06:50:38;;;;;;;;;;;20.30;45.40;;;;;;5091656;28;19924;-58
2023/05/11 06:53:04;;;;;;;;;;;20.30;45.40;;;;;;5074941;28;20353;-58
2023/05/11 06:55:31;;;;;;;;;;;20.30;45.60;;;;;;5074808;28;19923;-58
2023/05/11 06:58:00;;;;;;;;;;;20.30;45.50;;;;;;5074882;28;19920;-58
2023/05/11 07:00:26;;;;;;;;;;;20.30;45.50;;;;;;5088807;28;20424;-57
2023/05/11 07:02:53;;;;;;;;;;;20.30;45.70;;;;;;5074597;28;19924;-58
2023/05/11 07:05:20;;;;;;;;;;;20.30;45.70;;;;;;5092953;28;19920;-57
2023/05/11 07:07:47;;;;;;;;;;;20.30;45.80;;;;;;5071072;28;19970;-58
2023/05/11 07:10:13;;;;;;;;;;;20.30;45.80;;;;;;5072689;28;19924;-58
2023/05/11 07:12:40;;;;;;;;;;;20.30;45.90;;;;;;5072078;28;19928;-58
2023/05/11 07:15:09;;;;;;;;;;;20.30;45.90;;;;;;5071768;28;20003;-58
2023/05/11 07:17:36;;;;;;;;;;;20.30;46.00;;;;;;5090847;28;19928;-58
2023/05/11 07:20:03;;;;;;;;;;;20.30;46.10;;;;;;5073880;28;20336;-58
2023/05/11 07:22:30;;;;;;;;;;;20.30;46.10;;;;;;5073580;28;19924;-59
2023/05/11 07:24:57;;;;;;;;;;;20.30;46.10;;;;;;5092324;28;19924;-59
2023/05/11 07:27:24;;;;;;;;;;;20.30;46.20;;;;;;5073332;28;19920;-57
2023/05/11 07:29:51;;;;;;;;;;;20.30;46.30;;;;;;5073810;28;19946;-59
2023/05/11 07:32:20;;;;;;;;;;;20.30;46.40;;;;;;5092133;28;19959;-58
2023/05/11 07:34:47;;;;;;;;;;;20.30;46.40;;;;;;5073208;28;19947;-56
2023/05/11 07:37:14;;;;;;;;;;;20.30;46.50;;;;;;5073874;28;19930;-56
2023/05/11 07:39:40;;;;;;;;;;;20.30;46.40;;;;;;5073483;28;19921;-58
2023/05/11 07:42:07;;;;;;;;;;;20.30;46.40;;;;;;5091851;28;19924;-59
2023/05/11 07:44:34;;;;;;;;;;;20.30;46.30;;;;;;5073340;28;19945;-57
2023/05/11 07:47:01;;;;;;;;;;;20.30;46.30;;;;;;5092002;28;20354;-57
2023/05/11 07:49:30;;;;;;;;;;;20.30;46.40;;;;;;5090830;28;19973;-58
2023/05/11 07:52:00;;;;;;;;;;;20.30;46.40;;;;;;5094525;28;19966;-56
2023/05/11 07:54:27;;;;;;;;;;;20.30;46.40;;;;;;5076771;28;19951;-57
2023/05/11 07:56:53;;;;;;;;;;;20.30;46.40;;;;;;5077075;28;19973;-57
2023/05/11 07:59:20;;;;;;;;;;;20.30;46.40;;;;;;5079429;28;20177;-58
2023/05/11 08:01:47;;;;;;;;;;;20.30;46.40;;;;;;5081992;28;19920;-57
2023/05/11 08:04:14;;;;;;;;;;;20.30;46.50;;;;;;5077094;28;19924;-58
2023/05/11 08:06:43;;;;;;;;;;;20.30;46.50;;;;;;5096129;28;19946;-59
2023/05/11 08:09:10;;;;;;;;;;;20.30;46.50;;;;;;5084011;28;19928;-59
2023/05/11 08:11:37;;;;;;;;;;;20.30;46.50;;;;;;5075995;28;19924;-59
2023/05/11 08:14:04;;;;;;;;;;;20.30;46.60;;;;;;5079167;28;19993;-57
2023/05/11 08:16:32;;;;;;;;;;;20.30;46.70;;;;;;5092345;28;20265;-57
2023/05/11 08:18:58;;;;;;;;;;;20.30;46.90;;;;;;5078083;28;19919;-56
2023/05/11 08:21:26;;;;;;;;;;;20.30;46.80;;;;;;5096881;28;20144;-57
2023/05/11 08:23:55;;;;;;;;;;;20.30;46.80;;;;;;5061647;28;19931;-59
2023/05/11 08:26:21;;;;;;;;;;;20.30;46.90;;;;;;5097172;28;19973;-60
2023/05/11 08:28:50;;;;;;;;;;;20.30;46.80;;;;;;5096109;28;19970;-58
2023/05/11 08:31:19;;;;;;;;;;;20.30;46.90;;;;;;5092061;28;19940;-60
2023/05/11 08:33:47;;;;;;;;;;;20.30;46.80;;;;;;5093993;28;20005;-59
2023/05/11 08:36:15;;;;;;;;;;;20.30;46.80;;;;;;5075845;28;19924;-57
2023/05/11 08:38:42;;;;;;;;;;;20.30;46.80;;;;;;5076865;28;19920;-60
2023/05/11 08:41:12;;;;;;;;;;;20.30;47.00;;;;;;5093168;28;19966;-60
2023/05/11 08:43:40;;;;;;;;;;;20.30;46.80;;;;;;5075598;28;19920;-56
2023/05/11 08:46:07;;;;;;;;;;;20.30;46.80;;;;;;5075156;28;19920;-58
2023/05/11 08:48:35;;;;;;;;;;;20.30;46.80;;;;;;5074186;28;19928;-60
2023/05/11 08:51:02;;;;;;;;;;;20.30;46.80;;;;;;5073688;28;19927;-59
2023/05/11 08:53:29;;;;;;;;;;;20.30;46.80;;;;;;5085754;28;19932;-58
2023/05/11 08:55:56;;;;;;;;;;;20.30;46.90;;;;;;5088338;28;19920;-58
2023/05/11 08:58:24;;;;;;;;;;;20.30;46.80;;;;;;5089786;28;19959;-58
2023/05/11 09:00:51;;;;;;;;;;;20.30;46.80;;;;;;5089769;28;19924;-58
2023/05/11 09:03:18;;;;;;;;;;;20.30;46.80;;;;;;5088444;28;20408;-58
2023/05/11 09:05:45;;;;;;;;;;;20.30;46.80;;;;;;5070797;28;19932;-57
2023/05/11 09:08:12;;;;;;;;;;;20.30;46.90;;;;;;5071276;28;19955;-57
2023/05/11 09:10:39;;;;;;;;;;;20.30;46.90;;;;;;5071236;28;19966;-56
2023/05/11 09:13:05;;;;;;;;;;;20.30;46.80;;;;;;5071200;28;19966;-58
2023/05/11 09:15:34;;;;;;;;;;;20.30;47.00;;;;;;5087791;28;20365;-57
2023/05/11 09:18:01;;;;;;;;;;;20.30;47.00;;;;;;5071481;28;19920;-57
2023/05/11 09:20:28;;;;;;;;;;;20.30;47.00;;;;;;5070575;28;19926;-56
2023/05/11 09:22:55;;;;;;;;;;;20.30;47.00;;;;;;5071496;28;20014;-57
2023/05/11 09:25:22;;;;;;;;;;;20.30;47.00;;;;;;5089759;28;19920;-58
2023/05/11 09:27:49;;;;;;;;;;;20.30;47.00;;;;;;5071054;28;19924;-57
2023/05/11 09:30:16;;;;;;;;;;;20.30;46.90;;;;;;5088345;28;19946;-58
2023/05/11 09:32:48;;;;;;;;;;;20.30;46.90;;;;;;5088374;28;19946;-57
2023/05/11 09:35:18;;;;;;;;;;;20.30;47.00;;;;;;5085112;28;20247;-57
2023/05/11 09:37:47;;;;;;;;;;;20.30;46.90;;;;;;5070925;28;20004;-56
2023/05/11 09:40:15;;;;;;;;;;;20.30;47.50;;;;;;5070947;28;19931;-57
2023/05/11 09:42:42;;;;;;;;;;;20.40;47.00;;;;;;5070007;28;19924;-58
2023/05/11 09:45:09;;;;;;;;;;;20.30;47.10;;;;;;5089117;28;19920;-58
2023/05/11 09:47:38;;;;;;;;;;;20.40;47.20;;;;;;5070219;28;19920;-57
2023/05/11 09:50:17;;;;;;;;;;;20.30;47.00;;;;;;5087691;28;19924;-58
2023/05/11 09:52:45;;;;;;;;;;;20.40;47.10;;;;;;5087138;28;19926;-57
2023/05/11 09:55:12;;;;;;;;;;;20.40;47.20;;;;;;5085624;28;20486;-58
2023/05/11 09:57:39;;;;;;;;;;;20.40;47.80;;;;;;5070663;28;19919;-56
2023/05/11 10:00:08;;;;;;;;;;;20.30;47.10;;;;;;5089371;28;19936;-57
2023/05/11 10:02:35;;;;;;;;;;;20.30;47.20;;;;;;5086930;28;19924;-58
2023/05/11 10:05:02;;;;;;;;;;;20.40;47.40;;;;;;5087810;28;19936;-57
2023/05/11 10:07:30;;;;;;;;;;;20.40;47.40;;;;;;5069849;28;20255;-58
2023/05/11 10:09:57;;;;;;;;;;;20.40;47.50;;;;;;5071242;28;19924;-58
2023/05/11 10:12:24;;;;;;;;;;;20.40;47.70;;;;;;5070354;28;19924;-57
2023/05/11 10:14:53;;;;;;;;;;;20.30;47.50;;;;;;5087827;28;19920;-58
2023/05/11 10:17:20;;;;;;;;;;;20.40;47.70;;;;;;5088230;28;19920;-57
2023/05/11 10:19:47;;;;;;;;;;;20.40;47.70;;;;;;5086784;28;19951;-56
2023/05/11 10:22:14;;;;;;;;;;;20.40;47.70;;;;;;5070248;28;20362;-55
2023/05/11 10:24:42;;;;;;;;;;;20.40;47.70;;;;;;5073148;28;19927;-58
2023/05/11 10:27:10;;;;;;;;;;;20.40;47.80;;;;;;5087643;28;19943;-58
2023/05/11 10:29:37;;;;;;;;;;;20.40;47.90;;;;;;5087616;28;19927;-56
2023/05/11 10:32:04;;;;;;;;;;;20.40;48.00;;;;;;5087602;28;19920;-55
2023/05/11 10:34:31;;;;;;;;;;;20.40;48.20;;;;;;5088369;28;19977;-55
2023/05/11 10:36:59;;;;;;;;;;;20.40;48.00;;;;;;5087600;28;19938;-57
2023/05/11 10:39:26;;;;;;;;;;;20.40;47.90;;;;;;5088385;28;19938;-57
2023/05/11 10:41:59;;;;;;;;;;;20.40;47.90;;;;;;5087393;28;19927;-57
2023/05/11 10:44:31;;;;;;;;;;;20.40;48.20;;;;;;5070149;28;19927;-58
2023/05/11 10:47:06;;;;;;;;;;;20.40;48.30;;;;;;5088614;28;19926;-58
2023/05/11 10:49:40;;;;;;;;;;;20.40;48.40;;;;;;5091564;28;19920;-56
2023/05/11 10:52:13;;;;;;;;;;;20.40;48.60;;;;;;5093895;28;19977;-57
2023/05/11 10:54:42;;;;;;;;;;;20.30;48.50;;;;;;5093358;28;20381;-56
2023/05/11 10:57:15;;;;;;;;;;;20.30;49.00;;;;;;5076332;28;20259;-57
2023/05/11 10:59:45;;;;;;;;;;;20.40;48.30;;;;;;5075922;28;19935;-54
2023/05/11 11:02:12;;;;;;;;;;;20.30;48.30;;;;;;5093925;28;19942;-57
2023/05/11 11:04:43;;;;;;;;;;;20.30;48.30;;;;;;5078236;28;19959;-58
2023/05/11 11:07:15;;;;;;;;;;;20.40;48.40;;;;;;5077747;28;19928;-56
2023/05/11 11:09:49;;;;;;;;;;;20.30;49.20;;;;;;5093608;28;19924;-59
2023/05/11 11:12:17;;;;;;;;;;;20.30;49.00;;;;;;5073453;28;20386;-58
2023/05/11 11:14:57;;;;;;;;;;;20.30;49.20;;;;;;5076685;28;19992;-57
2023/05/11 11:17:25;;;;;;;;;;;20.30;49.30;;;;;;5076762;28;19930;-57
2023/05/11 11:19:52;;;;;;;;;;;20.30;49.80;;;;;;5073688;28;19926;-58
2023/05/11 11:22:40;;;;;;;;;;;20.30;49.60;;;;;;5091535;28;19977;-59
2023/05/11 11:25:07;;;;;;;;;;;20.30;49.60;;;;;;5074498;28;20330;-58
2023/05/11 11:27:52;;;;;;;;;;;20.30;49.60;;;;;;5092747;28;19936;-58
2023/05/11 11:30:21;;;;;;;;;;;20.30;49.60;;;;;;5058653;28;19928;-57
2023/05/11 11:32:50;;;;;;;;;;;20.30;49.50;;;;;;5094749;28;19927;-59
2023/05/11 11:35:36;;;;;;;;;;;20.30;49.50;;;;;;5097767;28;19920;-57
2023/05/11 11:38:03;;;;;;;;;;;20.30;49.40;;;;;;5095713;28;19922;-57
2023/05/11 11:40:35;;;;;;;;;;;20.30;49.50;;;;;;5097412;28;19924;-59
2023/05/11 11:43:10;;;;;;;;;;;20.30;49.60;;;;;;5093925;28;19970;-59
2023/05/11 11:45:39;;;;;;;;;;;20.30;49.60;;;;;;5080777;28;19988;-57
2023/05/11 11:48:07;;;;;;;;;;;20.30;49.50;;;;;;5092318;28;19920;-59
2023/05/11 11:50:33;;;;;;;;;;;20.30;49.50;;;;;;5093325;28;19981;-60
2023/05/11 11:53:00;;;;;;;;;;;20.30;49.60;;;;;;5075497;28;19970;-58
2023/05/11 11:55:47;;;;;;;;;;;20.30;49.60;;;;;;5094060;28;20358;-60
2023/05/11 11:58:30;;;;;;;;;;;20.30;49.60;;;;;;5093067;28;19920;-59
2023/05/11 12:00:58;;;;;;;;;;;20.30;49.50;;;;;;5092507;28;19939;-58
2023/05/11 12:03:25;;;;;;;;;;;20.30;49.40;;;;;;5095308;28;20009;-57
2023/05/11 12:05:51;;;;;;;;;;;20.30;49.20;;;;;;5093914;28;19983;-56
2023/05/11 12:08:18;;;;;;;;;;;20.30;49.20;;;;;;5091960;28;19920;-56
2023/05/11 12:10:47;;;;;;;;;;;20.30;49.40;;;;;;5074310;28;20389;-58
2023/05/11 12:13:14;;;;;;;;;;;20.30;49.40;;;;;;5092122;28;19930;-56
2023/05/11 12:15:41;;;;;;;;;;;20.30;49.70;;;;;;5075770;28;19927;-56
2023/05/11 12:18:18;;;;;;;;;;;20.30;49.60;;;;;;5074859;28;19920;-56
2023/05/11 12:20:45;;;;;;;;;;;20.30;49.60;;;;;;5092292;28;19973;-58
2023/05/11 12:23:13;;;;;;;;;;;20.30;49.70;;;;;;5093432;28;19980;-58
2023/05/11 12:25:39;;;;;;;;;;;20.30;49.60;;;;;;5076108;28;20019;-54
2023/05/11 12:28:06;;;;;;;;;;;20.30;49.60;;;;;;5095688;28;19920;-59
2023/05/11 12:30:33;;;;;;;;;;;20.30;49.70;;;;;;5076957;28;20385;-56
2023/05/11 12:33:02;;;;;;;;;;;20.30;49.50;;;;;;5094091;28;19927;-60
2023/05/11 12:35:31;;;;;;;;;;;20.30;49.60;;;;;;5075253;28;19966;-56
2023/05/11 12:38:00;;;;;;;;;;;20.30;49.90;;;;;;5093114;28;19920;-59
2023/05/11 12:40:27;;;;;;;;;;;20.30;49.80;;;;;;5055278;28;20320;-57
2023/05/11 12:42:54;;;;;;;;;;;20.30;49.70;;;;;;5091285;28;19926;-56
2023/05/11 12:45:22;;;;;;;;;;;20.30;49.70;;;;;;5074434;28;19959;-58
2023/05/11 12:47:49;;;;;;;;;;;20.30;49.80;;;;;;5095708;28;20376;-56
2023/05/11 12:50:16;;;;;;;;;;;20.30;50.10;;;;;;5077147;28;19924;-59
2023/05/11 12:52:44;;;;;;;;;;;20.30;50.00;;;;;;5075857;28;19936;-57
2023/05/11 12:55:11;;;;;;;;;;;20.30;50.10;;;;;;5074382;28;19924;-59
2023/05/11 12:57:38;;;;;;;;;;;20.30;50.00;;;;;;5093150;28;19924;-58
2023/05/11 13:00:06;;;;;;;;;;;20.40;49.90;;;;;;5093974;28;19924;-58
2023/05/11 13:02:33;;;;;;;;;;;20.30;49.70;;;;;;5094183;28;19927;-57
2023/05/11 13:05:11;;;;;;;;;;;20.40;50.00;;;;;;5092302;28;19959;-59
2023/05/11 13:07:38;;;;;;;;;;;20.40;50.90;;;;;;5094156;28;20262;-58
2023/05/11 13:10:06;;;;;;;;;;;20.30;51.40;;;;;;5092207;28;19985;-53
2023/05/11 13:12:34;;;;;;;;;;;20.30;51.60;;;;;;5092651;28;19924;-58
2023/05/11 13:15:05;;;;;;;;;;;20.30;51.80;;;;;;5074260;28;19943;-57
2023/05/11 13:17:34;;;;;;;;;;;20.30;52.00;;;;;;5092081;28;19977;-57
2023/05/11 13:20:18;;;;;;;;;;;20.30;52.40;;;;;;5090438;28;19931;-59
2023/05/11 13:22:45;;;;;;;;;;;20.30;52.50;;;;;;5089031;28;19920;-53
2023/05/11 13:25:13;;;;;;;;;;;20.20;52.60;;;;;;5090141;28;19927;-57
2023/05/11 13:27:41;;;;;;;;;;;20.20;53.40;;;;;;5089486;28;19932;-55
2023/05/11 13:30:08;;;;;;;;;;;20.20;53.00;;;;;;5075863;28;19969;-55
2023/05/11 13:32:35;;;;;;;;;;;20.10;52.90;;;;;;5073642;28;19924;-58
2023/05/11 13:35:03;;;;;;;;;;;20.10;53.00;;;;;;5072875;28;19920;-56
2023/05/11 13:37:32;;;;;;;;;;;20.10;53.20;;;;;;5073427;28;20310;-55
2023/05/11 13:40:00;;;;;;;;;;;20.10;53.20;;;;;;5071705;28;20381;-58
2023/05/11 13:42:28;;;;;;;;;;;20.10;53.30;;;;;;5072596;28;20502;-57
2023/05/11 13:44:55;;;;;;;;;;;20.00;53.30;;;;;;5073584;28;20048;-57
2023/05/11 13:47:22;;;;;;;;;;;20.00;53.20;;;;;;5071942;28;19920;-56
2023/05/11 13:49:49;;;;;;;;;;;20.00;53.50;;;;;;5074159;28;20450;-56
2023/05/11 13:52:15;;;;;;;;;;;20.00;53.50;;;;;;5090588;28;19971;-59
2023/05/11 13:54:42;;;;;;;;;;;20.00;53.50;;;;;;5072131;28;19927;-58
2023/05/11 13:57:09;;;;;;;;;;;20.00;53.40;;;;;;5093898;28;19928;-59
2023/05/11 13:59:38;;;;;;;;;;;20.00;53.60;;;;;;5090461;28;19943;-59
2023/05/11 14:02:05;;;;;;;;;;;20.00;53.70;;;;;;5073457;28;20362;-60
2023/05/11 14:04:32;;;;;;;;;;;20.00;53.70;;;;;;5072295;28;19935;-57
2023/05/11 14:06:59;;;;;;;;;;;19.90;53.50;;;;;;5072205;28;19920;-59
2023/05/11 14:09:26;;;;;;;;;;;19.90;53.60;;;;;;5071718;28;19927;-56
2023/05/11 14:11:52;;;;;;;;;;;19.90;53.50;;;;;;5088178;28;20301;-58
2023/05/11 14:14:19;;;;;;;;;;;19.90;53.30;;;;;;5087784;28;19928;-59
2023/05/11 14:16:48;;;;;;;;;;;19.90;53.40;;;;;;5073084;28;19932;-59
2023/05/11 14:19:15;;;;;;;;;;;19.90;53.30;;;;;;5073049;28;20019;-59
2023/05/11 14:21:42;;;;;;;;;;;19.90;53.50;;;;;;5089489;28;19924;-58
2023/05/11 14:24:09;;;;;;;;;;;19.90;53.50;;;;;;5099636;28;19921;-59